SBOSBO SIN / WSSS
Speedbird OnlineSpeedbird Online SIN / WSSS

Singapore Changi Airport
09:42 26.3°C

Location Singapore, Singapore
Latitude: 1.35019
Longitude: 103.994003
Web Airport Website | Wikipedia
Altitude 7 Meter / 22 Feet
Distance 10,842 KM / 6,737 Miles
from London.
Time Zone UTC +8 hours (Asia/Singapore)
Codes IATA: SIN
ICAO: WSSS
Currency £1 equals SGD 1.63
Runways
RunwayLength (m)Surface
02C4000Asphalt
02L4000Asphalt
02R4000Asphalt
20C4000Asphalt
20L4000Asphalt
20R4000Asphalt
Radio
TypeDescriptionFrequency
A/DAPP/DEP120.3
ARRARR119.3
ATISATIS128.6
CLDCLNC DEL121.65
GNDGND124.3
TWRTWR118.6
Live ATC
METAR WSSS 270100Z 33005KT 300V360 9999 FEW016 BKN300 27/23 Q1010 NOSIG
TAF TAF WSSS 262300Z 2700/2806 35009KT 9999 FEW015 SCT020 TEMPO 2707/2710 4000 SHRA FEW012CB BKN015
Weather As Of 27 Jan 2023 09:42
Description Broken clouds
Wind 13 km/h from North-West (330°)
Cloud Cover 75%
Precipitation Rain: none, Snow: none
Sunrise 07:14
Sunset 19:18
Lounges Cathay Pacific Lounge (Temporarily Closed), 4
SATS Premier Lounge, Departure Terminal
Qatar Airways Premium Lounge , Terminal 1
British Airways Lounge, Terminal 1
Marhaba Lounge, Terminal 1
The Qantas Singapore Lounge, Terminal 1
Dnata Lounge, Terminal 3
BLOSSOM - SATS & Plaza Premium Lounge, Terminal 4
Rotations During the last 90 days there were
139 flights from LHR
68 flights from SYD
134 flights to LHR
69 flights to SYD



Support Speedbird Online

© 2017-2023 Speedbird Online